< < Back
Terminal Aerodrome Forecast


Current Version              Previous Versions:   1  2  3  4  5  6  7  8  9  

Terminal Aerodrome Forecast

991
FTUS44 KBMX 220500 AAB
TAFBHM
TAF AMD
KBHM 220503Z 2205/2224 33005KT P6SM VCTS BKN050CB
     FM220700 30005KT P6SM BKN050
     FM221500 01010G16KT P6SM FEW250=



Latest METAR

629
SAUS70 KWBC 222200 RRG
MTRBHM
METAR KBHM 222153Z 35013KT 10SM CLR 26/08 A3008 RMK AO2 SLP178
T02610083


USA.gov is the U.S. government's official web portal to all federal, state and local government web resources and services.